Time;durP1;ratioP1;P1;durP2;ratioP2;P2;SDS_P1;SDS_P2;PMS_P1;PMS_P2;Temp;Humidity;BMP_temperature;BMP_pressure;BME280_temperature;BME280_humidity;BME280_pressure;Samples;Min_cycle;Max_cycle;Signal;HPM_P1;HPM_P2
2022/01/06 00:01:52;;;;;;;1.75;0.88;;;1.20;99.90;;;;;;5080861;28;20226;-73
2022/01/06 00:04:20;;;;;;;1.83;1.73;;;1.20;99.90;;;;;;5080308;28;20230;-74
2022/01/06 00:06:48;;;;;;;3.25;0.77;;;1.20;99.90;;;;;;5065732;28;20229;-73
2022/01/06 00:09:18;;;;;;;2.17;1.15;;;1.10;99.90;;;;;;5060898;28;20199;-73
2022/01/06 00:11:46;;;;;;;7.82;1.08;;;1.10;99.90;;;;;;5060614;28;20284;-71
2022/01/06 00:14:19;;;;;;;4.47;0.93;;;1.10;99.90;;;;;;5060035;28;20793;-72
2022/01/06 00:17:01;;;;;;;2.70;0.75;;;1.00;99.90;;;;;;5059756;28;20612;-73
2022/01/06 00:25:02;;;;;;;1.95;1.65;;;0.90;99.90;;;;;;5071274;28;20204;-72
2022/01/06 00:27:29;;;;;;;4.13;0.80;;;0.80;99.90;;;;;;5071991;28;20225;-73
2022/01/06 00:29:57;;;;;;;2.60;0.93;;;0.80;99.90;;;;;;5060875;28;20205;-74
2022/01/06 00:32:25;;;;;;;4.50;0.85;;;0.90;99.90;;;;;;5059967;28;20200;-73
2022/01/06 00:34:54;;;;;;;2.03;1.55;;;0.80;99.90;;;;;;5060438;28;20232;-72
2022/01/06 00:37:22;;;;;;;2.05;0.57;;;0.80;99.90;;;;;;5060539;28;20217;-73
2022/01/06 00:39:49;;;;;;;1.83;0.60;;;0.80;99.90;;;;;;5060670;28;20212;-72
2022/01/06 00:42:17;;;;;;;3.33;0.90;;;0.90;99.90;;;;;;5060303;28;20243;-73
2022/01/06 00:44:45;;;;;;;4.13;0.80;;;0.80;99.90;;;;;;5059936;28;20208;-71
2022/01/06 00:47:13;;;;;;;3.85;1.25;;;0.80;99.90;;;;;;5060123;28;20236;-73
2022/01/06 00:49:41;;;;;;;3.08;1.00;;;0.70;99.90;;;;;;5058422;28;20197;-71
2022/01/06 00:52:10;;;;;;;1.95;0.88;;;0.70;99.90;;;;;;5058839;28;20201;-71
2022/01/06 00:54:38;;;;;;;1.10;1.00;;;0.70;99.90;;;;;;5058810;28;20228;-72
2022/01/06 00:57:05;;;;;;;3.28;0.70;;;0.70;99.90;;;;;;5059457;28;20323;-72
2022/01/06 00:59:33;;;;;;;3.20;0.90;;;0.70;99.90;;;;;;5058876;28;20292;-71
2022/01/06 01:02:02;;;;;;;3.50;0.70;;;0.70;99.90;;;;;;5058779;28;20592;-71
2022/01/06 01:04:30;;;;;;;3.38;0.80;;;0.60;99.90;;;;;;5058741;28;20616;-71
2022/01/06 01:06:58;;;;;;;0.90;0.70;;;0.70;99.90;;;;;;5058468;28;20221;-70
2022/01/06 01:09:28;;;;;;;2.00;0.70;;;0.60;99.90;;;;;;5060261;28;20211;-72
2022/01/06 01:11:55;;;;;;;2.38;0.98;;;0.60;99.90;;;;;;5061751;28;20291;-72
2022/01/06 01:14:27;;;;;;;3.70;1.10;;;0.60;99.90;;;;;;5061565;28;20224;-71
2022/01/06 01:16:58;;;;;;;2.50;0.73;;;0.50;99.90;;;;;;5060779;28;20672;-72
2022/01/06 01:19:27;;;;;;;3.55;1.00;;;0.50;99.90;;;;;;5061857;28;20682;-71
2022/01/06 01:21:57;;;;;;;3.40;1.15;;;0.40;99.90;;;;;;5060835;28;20752;-72
2022/01/06 01:24:26;;;;;;;2.17;1.10;;;0.40;99.90;;;;;;5061581;28;20266;-70
2022/01/06 01:26:54;;;;;;;6.90;1.20;;;0.40;99.90;;;;;;5061968;28;20243;-71
2022/01/06 01:29:22;;;;;;;1.90;1.02;;;0.40;99.90;;;;;;5061325;28;20253;-72
2022/01/06 01:31:53;;;;;;;1.88;0.90;;;0.40;99.90;;;;;;5062297;28;20280;-70
2022/01/06 01:34:24;;;;;;;3.92;1.17;;;0.40;99.90;;;;;;5062306;28;20307;-71
2022/01/06 01:36:52;;;;;;;4.35;1.95;;;0.30;99.90;;;;;;5061189;28;20340;-71
2022/01/06 01:39:20;;;;;;;2.08;1.10;;;0.30;99.90;;;;;;5061624;28;20231;-70
2022/01/06 01:41:50;;;;;;;1.58;0.98;;;0.30;99.90;;;;;;5061267;28;20235;-71
2022/01/06 01:44:20;;;;;;;2.08;0.90;;;0.30;99.90;;;;;;5061356;28;20259;-72
2022/01/06 01:46:59;;;;;;;3.97;1.10;;;0.30;99.90;;;;;;5061425;28;20304;-68
2022/01/06 01:49:32;;;;;;;5.00;1.10;;;0.20;99.90;;;;;;5061298;28;20296;-69
2022/01/06 01:52:01;;;;;;;1.60;0.82;;;0.30;99.90;;;;;;5061948;28;20278;-69
2022/01/06 01:54:29;;;;;;;2.65;0.93;;;0.20;99.90;;;;;;5061337;28;20789;-69
2022/01/06 01:56:58;;;;;;;2.97;0.93;;;0.20;99.90;;;;;;5062046;28;20248;-69
2022/01/06 01:59:26;;;;;;;3.60;0.90;;;0.30;99.90;;;;;;5062254;28;20289;-70
2022/01/06 02:01:54;;;;;;;2.10;1.67;;;0.20;99.90;;;;;;5061873;28;20201;-72
2022/01/06 02:04:22;;;;;;;3.50;0.90;;;0.20;99.90;;;;;;5062881;28;20292;-72
2022/01/06 02:06:50;;;;;;;2.33;1.15;;;0.20;99.90;;;;;;5064726;28;20241;-72
2022/01/06 02:09:18;;;;;;;2.22;1.10;;;0.20;99.90;;;;;;5063990;28;20259;-71
2022/01/06 02:11:46;;;;;;;3.75;0.95;;;0.20;99.90;;;;;;5060732;28;20288;-70
2022/01/06 02:14:15;;;;;;;3.15;1.20;;;0.20;99.90;;;;;;5060232;28;20201;-72
2022/01/06 02:16:43;;;;;;;3.58;0.80;;;0.10;99.90;;;;;;5060668;28;20231;-70
2022/01/06 02:19:11;;;;;;;1.40;1.10;;;0.10;99.90;;;;;;5059815;28;20201;-72
2022/01/06 02:21:42;;;;;;;6.15;1.50;;;0.10;99.90;;;;;;5060391;28;20288;-72
2022/01/06 02:24:10;;;;;;;6.57;1.50;;;0.10;99.90;;;;;;5060298;28;20243;-72
2022/01/06 02:26:38;;;;;;;4.03;1.70;;;0.00;99.90;;;;;;5060628;28;20282;-72
2022/01/06 02:29:06;;;;;;;1.58;0.73;;;0.00;99.90;;;;;;5060962;28;20197;-70
2022/01/06 02:31:41;;;;;;;2.25;1.42;;;0.00;99.90;;;;;;5060666;28;20197;-70
2022/01/06 02:34:09;;;;;;;3.67;1.52;;;-0.10;99.90;;;;;;5061730;28;20227;-67
2022/01/06 02:36:37;;;;;;;3.90;1.00;;;-0.10;99.90;;;;;;5061130;28;20308;-69
2022/01/06 02:39:07;;;;;;;3.00;1.52;;;-0.20;99.90;;;;;;5061366;28;20292;-69
2022/01/06 02:41:35;;;;;;;2.20;1.38;;;-0.20;99.90;;;;;;5060629;28;20212;-72
2022/01/06 02:44:03;;;;;;;2.17;1.05;;;-0.20;99.90;;;;;;5061298;28;20224;-72
2022/01/06 02:46:31;;;;;;;9.02;1.98;;;-0.20;99.90;;;;;;5061049;28;20461;-72
2022/01/06 02:48:59;;;;;;;2.47;1.13;;;-0.20;99.90;;;;;;5060215;28;20200;-71
2022/01/06 02:51:27;;;;;;;1.35;1.17;;;-0.20;99.90;;;;;;5074760;28;20228;-72
2022/01/06 02:53:55;;;;;;;2.10;1.30;;;-0.20;99.90;;;;;;5079819;28;20227;-70
2022/01/06 02:56:24;;;;;;;3.58;1.55;;;-0.20;99.90;;;;;;5059413;28;20307;-72
2022/01/06 02:58:52;;;;;;;5.05;1.20;;;-0.20;99.90;;;;;;5059647;28;20266;-71
2022/01/06 03:01:20;;;;;;;2.90;1.60;;;-0.20;99.90;;;;;;5059621;28;20787;-71
2022/01/06 03:03:48;;;;;;;3.92;0.85;;;-0.20;99.90;;;;;;5060369;28;20267;-71
2022/01/06 03:06:16;;;;;;;1.88;1.10;;;-0.20;99.90;;;;;;5060567;28;20423;-69
2022/01/06 03:08:44;;;;;;;4.45;1.00;;;-0.20;99.90;;;;;;5061361;28;20265;-71
2022/01/06 03:11:24;;;;;;;9.23;2.05;;;-0.20;99.90;;;;;;5061937;28;20205;-70
2022/01/06 03:13:54;;;;;;;2.47;1.35;;;-0.20;99.90;;;;;;5060794;28;20201;-70
2022/01/06 03:16:22;;;;;;;1.50;1.10;;;-0.20;99.90;;;;;;5061169;28;20939;-71
2022/01/06 03:18:50;;;;;;;7.72;1.10;;;-0.20;99.90;;;;;;5061539;28;20288;-70
2022/01/06 03:21:18;;;;;;;4.53;0.80;;;-0.20;99.90;;;;;;5060400;28;20231;-72
2022/01/06 03:23:45;;;;;;;2.05;0.90;;;-0.10;99.90;;;;;;5060284;28;20319;-71
2022/01/06 03:26:13;;;;;;;3.38;1.42;;;-0.10;99.90;;;;;;5059892;28;20545;-70
2022/01/06 03:28:41;;;;;;;6.35;1.45;;;-0.10;99.90;;;;;;5060388;28;20209;-71
2022/01/06 03:31:10;;;;;;;2.10;1.00;;;-0.10;99.90;;;;;;5060264;28;20471;-71
2022/01/06 03:33:38;;;;;;;1.75;1.65;;;-0.20;99.90;;;;;;5062989;28;20420;-71
2022/01/06 03:36:06;;;;;;;5.20;1.40;;;-0.10;99.90;;;;;;5061529;28;20258;-71
2022/01/06 03:38:34;;;;;;;1.50;0.70;;;-0.20;99.90;;;;;;5061270;28;20224;-71
2022/01/06 03:41:02;;;;;;;1.13;0.82;;;-0.20;99.90;;;;;;5060371;28;20646;-70
2022/01/06 03:43:30;;;;;;;1.15;1.05;;;-0.20;99.90;;;;;;5059915;28;20592;-70
2022/01/06 03:45:58;;;;;;;0.63;0.52;;;-0.20;99.90;;;;;;5059969;28;20225;-70
2022/01/06 03:48:27;;;;;;;2.30;1.23;;;-0.20;99.90;;;;;;5059946;28;20205;-71
2022/01/06 03:50:54;;;;;;;2.63;1.10;;;-0.20;99.90;;;;;;5059596;28;20207;-71
2022/01/06 03:53:22;;;;;;;1.35;1.10;;;-0.20;99.90;;;;;;5058642;28;20292;-69
2022/01/06 03:55:50;;;;;;;4.13;0.90;;;-0.20;99.90;;;;;;5059793;28;20288;-69
2022/01/06 03:58:18;;;;;;;3.45;1.60;;;-0.20;99.90;;;;;;5059072;28;20556;-70
2022/01/06 04:00:46;;;;;;;1.42;1.33;;;-0.20;99.90;;;;;;5059561;28;20228;-71
2022/01/06 04:03:14;;;;;;;2.90;1.20;;;-0.30;99.90;;;;;;5060421;28;20473;-71
2022/01/06 04:05:43;;;;;;;3.05;1.13;;;-0.30;99.90;;;;;;5059621;28;20220;-70
2022/01/06 04:08:11;;;;;;;4.22;1.23;;;-0.30;99.90;;;;;;5059698;28;20569;-72
2022/01/06 04:10:39;;;;;;;0.70;0.70;;;-0.40;99.90;;;;;;5059427;28;20287;-72
2022/01/06 04:13:07;;;;;;;4.13;1.60;;;-0.30;99.90;;;;;;5058815;28;20212;-72
2022/01/06 04:15:35;;;;;;;4.40;1.27;;;-0.30;99.90;;;;;;5059163;28;20284;-72
2022/01/06 04:18:02;;;;;;;4.43;1.27;;;-0.30;99.90;;;;;;5059278;28;20759;-71
2022/01/06 04:20:30;;;;;;;2.50;1.50;;;-0.30;99.90;;;;;;5059343;28;20229;-71
2022/01/06 04:22:59;;;;;;;4.07;1.30;;;-0.30;99.90;;;;;;5059151;28;20225;-71
2022/01/06 04:25:27;;;;;;;1.65;1.05;;;-0.30;99.90;;;;;;5059306;28;20463;-72
2022/01/06 04:27:55;;;;;;;1.85;1.08;;;-0.30;99.90;;;;;;5058725;28;20213;-71
2022/01/06 04:30:23;;;;;;;3.38;0.98;;;-0.40;99.90;;;;;;5059410;28;20676;-71
2022/01/06 04:32:51;;;;;;;1.20;1.10;;;-0.40;99.90;;;;;;5059594;28;20207;-71
2022/01/06 04:35:19;;;;;;;2.50;1.30;;;-0.40;99.90;;;;;;5059543;28;20324;-70
2022/01/06 04:37:46;;;;;;;3.35;1.10;;;-0.40;99.90;;;;;;5059375;28;20227;-71
2022/01/06 04:40:16;;;;;;;11.93;1.50;;;-0.40;99.90;;;;;;5059250;28;20201;-71
2022/01/06 04:42:43;;;;;;;4.32;1.17;;;-0.40;99.90;;;;;;5059890;28;20293;-69
2022/01/06 04:45:11;;;;;;;2.45;1.40;;;-0.40;99.90;;;;;;5062322;28;20695;-68
2022/01/06 04:47:39;;;;;;;2.70;1.17;;;-0.40;99.90;;;;;;5063837;28;20220;-71
2022/01/06 04:50:08;;;;;;;1.42;1.33;;;-0.40;99.90;;;;;;5063242;28;20291;-72
2022/01/06 04:52:36;;;;;;;3.60;0.93;;;-0.40;99.90;;;;;;5062970;28;20232;-70
2022/01/06 04:55:05;;;;;;;2.30;1.00;;;-0.40;99.90;;;;;;5062894;28;20296;-70
2022/01/06 04:57:34;;;;;;;2.22;1.50;;;-0.50;99.90;;;;;;5063230;28;20461;-71
2022/01/06 05:00:02;;;;;;;2.88;2.15;;;-0.40;99.90;;;;;;5063202;28;20232;-68
2022/01/06 05:02:29;;;;;;;6.45;2.00;;;-0.50;99.90;;;;;;5062773;28;20648;-70
2022/01/06 05:04:58;;;;;;;4.28;1.35;;;-0.40;99.90;;;;;;5062466;28;20631;-70
2022/01/06 05:07:25;;;;;;;4.32;1.65;;;-0.40;99.90;;;;;;5062044;28;20315;-71
2022/01/06 05:09:53;;;;;;;1.48;1.02;;;-0.40;99.90;;;;;;5061909;28;20292;-70
2022/01/06 05:12:22;;;;;;;1.10;1.00;;;-0.40;99.90;;;;;;5061780;28;20299;-69
2022/01/06 05:14:51;;;;;;;3.58;0.90;;;-0.40;99.90;;;;;;5061206;28;20396;-70
2022/01/06 05:17:22;;;;;;;2.53;1.48;;;-0.40;99.90;;;;;;5069516;28;20311;-70
2022/01/06 05:19:49;;;;;;;2.15;1.75;;;-0.40;99.90;;;;;;5084386;28;20212;-73
2022/01/06 05:22:18;;;;;;;7.95;1.42;;;-0.40;99.90;;;;;;5064631;28;20291;-72
2022/01/06 05:24:46;;;;;;;1.58;1.25;;;-0.40;99.90;;;;;;5062285;28;20439;-72
2022/01/06 05:27:14;;;;;;;2.95;1.70;;;-0.40;99.90;;;;;;5061957;28;20247;-70
2022/01/06 05:29:42;;;;;;;6.85;1.30;;;-0.40;99.90;;;;;;5062022;28;20288;-71
2022/01/06 05:32:11;;;;;;;2.33;1.77;;;-0.40;99.90;;;;;;5062041;28;20265;-67
2022/01/06 05:34:39;;;;;;;2.65;1.35;;;-0.40;99.90;;;;;;5063386;28;20205;-67
2022/01/06 05:37:07;;;;;;;1.60;1.10;;;-0.40;99.90;;;;;;5062495;28;20229;-69
2022/01/06 05:39:35;;;;;;;6.95;1.65;;;-0.40;99.90;;;;;;5061178;28;20304;-69
2022/01/06 05:42:04;;;;;;;1.70;1.60;;;-0.40;99.90;;;;;;5062168;28;20252;-69
2022/01/06 05:44:34;;;;;;;1.65;1.20;;;-0.50;99.90;;;;;;5061551;28;20295;-70
2022/01/06 05:47:03;;;;;;;2.35;1.35;;;-0.50;99.90;;;;;;5062239;28;20224;-69
2022/01/06 05:49:33;;;;;;;3.13;1.60;;;-0.50;99.90;;;;;;5062542;28;20205;-68
2022/01/06 05:52:01;;;;;;;2.72;2.17;;;-0.60;99.90;;;;;;5061644;28;20197;-68
2022/01/06 05:54:29;;;;;;;2.35;1.42;;;-0.60;99.90;;;;;;5068712;28;20199;-67
2022/01/06 05:56:57;;;;;;;4.05;1.15;;;-0.60;99.90;;;;;;5082568;28;20251;-66
2022/01/06 05:59:25;;;;;;;4.05;1.40;;;-0.60;99.90;;;;;;5081781;28;20204;-67
2022/01/06 06:01:53;;;;;;;3.10;1.30;;;-0.60;99.90;;;;;;5082013;28;20201;-68
2022/01/06 06:04:21;;;;;;;4.60;1.75;;;-0.60;99.90;;;;;;5081573;28;20296;-67
2022/01/06 06:06:50;;;;;;;6.88;2.70;;;-0.60;99.90;;;;;;5081369;28;20254;-68
2022/01/06 06:09:19;;;;;;;1.55;1.10;;;-0.60;99.90;;;;;;5081366;28;20299;-67
2022/01/06 06:11:47;;;;;;;1.98;1.45;;;-0.60;99.90;;;;;;5081373;28;20412;-66
2022/01/06 06:14:15;;;;;;;2.78;1.30;;;-0.60;99.90;;;;;;5081378;28;20440;-67
2022/01/06 06:16:43;;;;;;;6.15;1.60;;;-0.60;99.90;;;;;;5080876;28;20224;-65
2022/01/06 06:19:11;;;;;;;3.85;2.08;;;-0.70;99.90;;;;;;5081440;28;20686;-67
2022/01/06 06:21:39;;;;;;;2.65;1.70;;;-0.70;99.90;;;;;;5081723;28;20223;-67
2022/01/06 06:24:08;;;;;;;4.25;1.55;;;-0.70;99.90;;;;;;5083398;28;20595;-66
2022/01/06 06:26:36;;;;;;;3.67;2.17;;;-0.70;99.90;;;;;;5088666;28;20912;-67
2022/01/06 06:29:04;;;;;;;2.38;1.48;;;-0.60;99.90;;;;;;5089827;28;20204;-69
2022/01/06 06:31:33;;;;;;;2.88;1.63;;;-0.50;99.90;;;;;;5088684;28;20204;-69
2022/01/06 06:34:01;;;;;;;2.70;1.52;;;-0.40;99.90;;;;;;5082098;28;20196;-67
2022/01/06 06:36:29;;;;;;;3.85;2.03;;;-0.40;99.90;;;;;;5079467;28;20216;-67
2022/01/06 06:38:57;;;;;;;2.38;1.30;;;-0.30;99.90;;;;;;5078890;28;20716;-68
2022/01/06 06:41:26;;;;;;;7.18;2.20;;;-0.20;99.90;;;;;;5078686;28;20232;-68
2022/01/06 06:43:54;;;;;;;4.78;1.60;;;-0.20;99.90;;;;;;5078100;28;20208;-67
2022/01/06 06:46:22;;;;;;;1.75;1.42;;;-0.10;99.90;;;;;;5073623;28;20221;-68
2022/01/06 06:48:50;;;;;;;4.97;1.50;;;-0.10;99.90;;;;;;5066103;28;20216;-67
2022/01/06 06:51:18;;;;;;;3.15;1.48;;;-0.20;99.90;;;;;;5071929;28;20200;-67
2022/01/06 06:53:46;;;;;;;7.93;2.05;;;-0.20;99.90;;;;;;5074905;28;20289;-67
2022/01/06 06:56:14;;;;;;;2.88;1.58;;;-0.30;99.90;;;;;;5067174;27;20213;-68
2022/01/06 06:58:43;;;;;;;3.75;1.45;;;-0.30;99.90;;;;;;5068019;28;20739;-66
2022/01/06 07:01:11;;;;;;;5.82;1.50;;;-0.30;99.90;;;;;;5063500;28;20437;-67
2022/01/06 07:03:39;;;;;;;2.60;2.03;;;-0.20;99.90;;;;;;5061764;28;20648;-68
2022/01/06 07:06:07;;;;;;;3.03;1.40;;;-0.10;99.90;;;;;;5060965;28;20746;-68
2022/01/06 07:08:35;;;;;;;4.25;1.60;;;-0.10;99.90;;;;;;5061672;28;20440;-68
2022/01/06 07:11:03;;;;;;;3.42;1.40;;;0.00;99.90;;;;;;5058873;28;20300;-67
2022/01/06 07:13:31;;;;;;;2.55;1.70;;;0.00;99.90;;;;;;5058406;28;20737;-68
2022/01/06 07:16:00;;;;;;;3.80;2.55;;;0.10;99.90;;;;;;5058701;28;20248;-67
2022/01/06 07:18:28;;;;;;;1.35;1.25;;;0.10;99.90;;;;;;5058396;28;20675;-67
2022/01/06 07:20:56;;;;;;;3.20;1.20;;;0.10;99.90;;;;;;5062015;28;20287;-67
2022/01/06 07:23:24;;;;;;;2.20;2.00;;;0.10;99.90;;;;;;5058814;28;20420;-66
2022/01/06 07:25:52;;;;;;;7.03;2.33;;;0.10;99.90;;;;;;5058418;28;20259;-68
2022/01/06 07:28:19;;;;;;;1.38;1.27;;;0.10;99.90;;;;;;5059564;28;20201;-67
2022/01/06 07:30:47;;;;;;;3.60;1.33;;;0.20;99.90;;;;;;5067088;28;20227;-67
2022/01/06 07:33:16;;;;;;;5.53;1.70;;;0.20;99.90;;;;;;5058367;28;20231;-67
2022/01/06 07:35:45;;;;;;;3.05;2.13;;;0.20;99.90;;;;;;5058575;28;20220;-67
2022/01/06 07:38:12;;;;;;;6.13;2.30;;;0.10;99.90;;;;;;5058924;28;20243;-67
2022/01/06 07:40:41;;;;;;;3.00;1.73;;;0.10;99.90;;;;;;5058771;28;20284;-69
2022/01/06 07:43:09;;;;;;;2.20;1.67;;;0.00;99.90;;;;;;5057794;28;20287;-66
2022/01/06 07:45:37;;;;;;;4.25;1.75;;;-0.10;99.90;;;;;;5058003;28;20223;-67
2022/01/06 07:48:15;;;;;;;3.78;1.70;;;-0.10;99.90;;;;;;5076862;28;20269;-66
2022/01/06 07:50:47;;;;;;;3.17;1.50;;;-0.20;99.90;;;;;;5062686;28;20856;-67
2022/01/06 07:53:15;;;;;;;7.60;1.67;;;-0.20;99.90;;;;;;5060320;28;20284;-66
2022/01/06 07:55:43;;;;;;;3.22;1.70;;;-0.20;99.90;;;;;;5060525;28;20209;-68
2022/01/06 07:58:10;;;;;;;3.70;1.60;;;-0.30;99.90;;;;;;5059568;28;20208;-68
2022/01/06 08:00:38;;;;;;;9.88;1.90;;;-0.20;99.90;;;;;;5059790;28;20266;-69
2022/01/06 08:03:06;;;;;;;6.18;2.03;;;-0.10;99.90;;;;;;5060019;28;20236;-67
2022/01/06 08:05:34;;;;;;;2.70;2.00;;;-0.10;99.90;;;;;;5060264;28;20370;-67
2022/01/06 08:08:04;;;;;;;5.70;1.80;;;0.00;99.90;;;;;;5060015;28;20228;-67
2022/01/06 08:10:32;;;;;;;2.00;1.80;;;0.00;99.90;;;;;;5058330;28;20232;-67
2022/01/06 08:13:00;;;;;;;8.60;1.73;;;0.10;99.90;;;;;;5058069;28;20228;-67
2022/01/06 08:15:28;;;;;;;4.03;2.35;;;0.10;99.90;;;;;;5058529;28;20205;-67
2022/01/06 08:17:55;;;;;;;2.63;1.63;;;0.10;99.90;;;;;;5060989;28;20247;-67
2022/01/06 08:20:23;;;;;;;6.18;2.25;;;0.20;99.90;;;;;;5063696;28;20296;-68
2022/01/06 08:22:51;;;;;;;3.90;1.80;;;0.20;99.90;;;;;;5064515;28;20711;-67
2022/01/06 08:25:21;;;;;;;2.90;1.70;;;0.20;99.90;;;;;;5064089;28;20882;-66
2022/01/06 08:27:49;;;;;;;1.42;1.35;;;0.30;99.90;;;;;;5064925;28;20205;-68
2022/01/06 08:30:17;;;;;;;6.53;2.17;;;0.30;99.90;;;;;;5064329;28;20309;-66
2022/01/06 08:32:44;;;;;;;2.38;1.48;;;0.30;99.90;;;;;;5063534;28;20207;-66
2022/01/06 08:35:12;;;;;;;2.75;1.50;;;0.20;99.90;;;;;;5063610;28;20312;-66
2022/01/06 08:37:40;;;;;;;4.38;1.75;;;0.20;99.90;;;;;;5064548;28;20212;-66
2022/01/06 08:40:10;;;;;;;3.00;1.60;;;0.20;99.90;;;;;;5064058;28;20204;-67
2022/01/06 08:42:39;;;;;;;4.45;1.67;;;0.20;99.90;;;;;;5062422;28;20287;-66
2022/01/06 08:45:08;;;;;;;2.90;1.80;;;0.20;99.90;;;;;;5061468;28;20304;-68
2022/01/06 08:47:36;;;;;;;9.82;2.80;;;0.20;99.90;;;;;;5062128;28;20264;-64
2022/01/06 08:50:05;;;;;;;4.55;1.95;;;0.20;99.90;;;;;;5062152;28;20229;-66
2022/01/06 08:52:35;;;;;;;2.95;2.38;;;0.30;99.90;;;;;;5061719;28;20300;-67
2022/01/06 08:55:04;;;;;;;6.07;1.73;;;0.30;99.90;;;;;;5062264;28;20638;-71
2022/01/06 08:57:32;;;;;;;3.53;1.45;;;0.30;99.90;;;;;;5061556;28;20213;-73
2022/01/06 09:00:02;;;;;;;4.10;1.45;;;0.30;99.90;;;;;;5075998;28;20362;-72
2022/01/06 09:02:30;;;;;;;6.75;1.80;;;0.40;99.90;;;;;;5069300;28;20205;-75
2022/01/06 09:04:59;;;;;;;3.45;1.77;;;0.40;99.90;;;;;;5082214;28;20205;-75
2022/01/06 09:07:42;;;;;;;2.47;1.80;;;0.40;99.90;;;;;;5089964;28;20319;-71
2022/01/06 09:10:11;;;;;;;7.30;2.17;;;0.50;99.90;;;;;;5091025;28;20232;-76
2022/01/06 09:12:39;;;;;;;6.47;1.95;;;0.60;99.90;;;;;;5099122;28;20231;-75
2022/01/06 09:15:10;;;;;;;6.50;2.05;;;0.60;99.90;;;;;;5073217;28;20195;-74
2022/01/06 09:17:38;;;;;;;7.65;2.22;;;0.70;99.90;;;;;;5069856;28;20902;-75
2022/01/06 09:20:08;;;;;;;9.00;2.80;;;0.80;99.90;;;;;;5071611;28;20266;-72
2022/01/06 09:22:40;;;;;;;11.48;1.67;;;0.80;99.90;;;;;;5071692;28;20787;-69
2022/01/06 09:25:09;;;;;;;5.22;1.58;;;0.90;99.90;;;;;;5072324;28;20255;-72
2022/01/06 09:27:37;;;;;;;3.55;1.75;;;0.90;99.90;;;;;;5071913;28;20260;-72
2022/01/06 09:30:06;;;;;;;1.58;1.25;;;1.00;99.90;;;;;;5062903;28;20207;-71
2022/01/06 09:32:36;;;;;;;3.00;1.55;;;1.00;99.90;;;;;;5061014;28;20201;-71
2022/01/06 09:35:04;;;;;;;3.08;1.75;;;1.00;99.90;;;;;;5061388;28;20290;-71
2022/01/06 09:37:32;;;;;;;3.45;2.40;;;1.10;99.90;;;;;;5074431;28;20481;-71
2022/01/06 09:40:00;;;;;;;2.90;1.60;;;1.10;99.90;;;;;;5081250;28;20323;-71
2022/01/06 09:42:28;;;;;;;2.70;2.35;;;1.20;99.90;;;;;;5080724;28;20249;-71
2022/01/06 09:44:57;;;;;;;3.63;1.88;;;1.20;99.90;;;;;;5080585;28;20683;-70
2022/01/06 09:47:27;;;;;;;5.47;1.48;;;1.30;99.90;;;;;;5080853;28;20297;-70
2022/01/06 09:50:10;;;;;;;3.83;1.92;;;1.30;99.90;;;;;;5064503;28;20690;-65
2022/01/06 09:52:38;;;;;;;4.90;1.45;;;1.30;99.90;;;;;;5060195;28;20201;-65
2022/01/06 09:55:07;;;;;;;2.75;1.40;;;1.40;99.90;;;;;;5059695;28;20660;-65
2022/01/06 09:57:35;;;;;;;4.57;1.33;;;1.50;99.90;;;;;;5060195;28;20304;-65
2022/01/06 10:00:07;;;;;;;2.50;1.77;;;1.50;99.90;;;;;;5060380;28;20531;-65
2022/01/06 10:02:39;;;;;;;5.78;2.03;;;1.60;99.90;;;;;;5059404;28;20220;-64
2022/01/06 10:05:11;;;;;;;2.47;2.00;;;1.60;99.90;;;;;;5059880;28;20201;-66
2022/01/06 10:07:41;;;;;;;3.05;1.73;;;1.60;99.90;;;;;;5060102;28;20308;-64
2022/01/06 10:10:14;;;;;;;3.95;1.63;;;1.70;99.90;;;;;;5060089;28;20212;-64
2022/01/06 10:12:54;;;;;;;2.28;1.67;;;1.80;99.90;;;;;;5075731;28;20210;-64
2022/01/06 10:15:25;;;;;;;3.45;1.42;;;1.90;99.90;;;;;;5081606;28;20203;-65
2022/01/06 10:17:55;;;;;;;14.00;2.13;;;1.90;99.90;;;;;;5095072;28;20235;-63
2022/01/06 10:20:26;;;;;;;7.30;1.90;;;2.00;99.90;;;;;;5080760;28;20707;-65
2022/01/06 10:22:56;;;;;;;4.28;1.77;;;2.00;99.90;;;;;;5079708;28;20223;-65
2022/01/06 10:25:26;;;;;;;3.30;1.20;;;2.00;99.90;;;;;;5079803;28;20228;-66
2022/01/06 10:28:15;;;;;;;6.78;1.55;;;2.10;99.90;;;;;;5079734;28;20293;-65
2022/01/06 10:30:47;;;;;;;2.63;1.17;;;2.10;99.90;;;;;;5080031;28;20257;-66
2022/01/06 10:33:19;;;;;;;1.40;1.27;;;2.20;99.90;;;;;;5080041;28;20204;-65
2022/01/06 10:35:49;;;;;;;1.95;1.70;;;2.20;99.90;;;;;;5083179;28;20246;-65
2022/01/06 10:38:26;;;;;;;3.50;1.67;;;2.30;99.90;;;;;;5083628;28;20223;-63
2022/01/06 10:40:54;;;;;;;2.65;1.55;;;2.40;99.90;;;;;;5080645;28;20745;-65
2022/01/06 10:43:33;;;;;;;4.55;2.25;;;2.40;99.90;;;;;;5079997;28;20411;-64
2022/01/06 10:46:02;;;;;;;4.30;1.20;;;2.50;99.90;;;;;;5079177;28;20468;-65
2022/01/06 10:48:30;;;;;;;3.67;1.02;;;2.50;99.90;;;;;;5079531;28;20220;-65
2022/01/06 10:51:01;;;;;;;1.75;1.50;;;2.60;99.90;;;;;;5079977;28;20440;-65
2022/01/06 10:53:30;;;;;;;3.97;1.45;;;2.60;99.90;;;;;;5086810;28;20207;-66
2022/01/06 10:55:57;;;;;;;1.27;0.77;;;2.60;99.90;;;;;;5084970;28;20338;-66
2022/01/06 10:58:27;;;;;;;1.67;1.35;;;2.60;99.90;;;;;;5079894;28;20228;-66
2022/01/06 11:00:58;;;;;;;5.57;1.40;;;2.70;99.90;;;;;;5079298;28;20809;-66
2022/01/06 11:03:28;;;;;;;2.05;1.10;;;2.80;99.90;;;;;;5079340;28;20208;-66
2022/01/06 11:05:59;;;;;;;4.20;1.00;;;2.80;99.90;;;;;;5079217;28;20294;-68
2022/01/06 11:08:30;;;;;;;1.30;1.02;;;2.90;99.90;;;;;;5079497;28;20252;-66
2022/01/06 11:11:15;;;;;;;1.05;0.80;;;3.00;99.90;;;;;;5080857;28;20239;-66
2022/01/06 11:13:44;;;;;;;2.17;1.30;;;3.00;99.90;;;;;;5060857;28;20193;-67
2022/01/06 11:16:15;;;;;;;1.50;1.17;;;3.10;99.90;;;;;;5059771;28;20221;-66
2022/01/06 11:18:54;;;;;;;5.38;1.40;;;3.00;99.90;;;;;;5060190;28;20404;-66
2022/01/06 11:21:25;;;;;;;7.97;2.55;;;3.10;99.90;;;;;;5060479;28;20259;-66
2022/01/06 11:24:05;;;;;;;3.88;1.00;;;3.10;99.90;;;;;;5059762;28;20236;-66
2022/01/06 11:26:33;;;;;;;2.45;1.63;;;3.10;99.90;;;;;;5059303;28;20316;-66
2022/01/06 11:29:03;;;;;;;7.80;1.65;;;3.10;99.90;;;;;;5059685;28;20248;-66
2022/01/06 11:31:40;;;;;;;6.38;1.13;;;3.20;99.90;;;;;;5059711;28;20209;-66
2022/01/06 11:34:14;;;;;;;3.63;1.40;;;3.20;99.90;;;;;;5059872;28;20205;-66
2022/01/06 11:36:49;;;;;;;1.30;0.90;;;3.30;99.90;;;;;;5059781;28;20410;-66
2022/01/06 11:39:23;;;;;;;6.45;1.13;;;3.30;99.90;;;;;;5060268;28;20206;-66
2022/01/06 11:41:53;;;;;;;1.90;1.08;;;3.20;99.90;;;;;;5061361;28;20212;-66
2022/01/06 11:44:25;;;;;;;0.98;0.77;;;3.30;99.90;;;;;;5059667;28;20351;-66
2022/01/06 11:46:56;;;;;;;5.28;0.98;;;3.30;99.90;;;;;;5058845;28;20227;-66
2022/01/06 11:49:32;;;;;;;1.25;1.23;;;3.40;99.90;;;;;;5059527;28;20519;-66
2022/01/06 11:52:09;;;;;;;2.10;0.75;;;3.40;99.90;;;;;;5062618;28;20375;-66
2022/01/06 11:54:51;;;;;;;2.95;1.17;;;3.50;99.90;;;;;;5064498;28;20276;-65
2022/01/06 11:57:30;;;;;;;2.45;1.20;;;3.50;99.90;;;;;;5062285;28;20271;-66
2022/01/06 11:59:59;;;;;;;4.15;0.80;;;3.60;99.90;;;;;;5060173;28;20219;-66
2022/01/06 12:02:27;;;;;;;3.67;1.05;;;3.60;99.90;;;;;;5063113;28;20674;-64
2022/01/06 12:04:57;;;;;;;0.75;0.73;;;3.60;99.90;;;;;;5059592;28;20209;-66
2022/01/06 12:07:27;;;;;;;1.63;1.00;;;3.60;99.90;;;;;;5057723;28;20221;-66
2022/01/06 12:09:59;;;;;;;1.17;1.08;;;3.60;99.90;;;;;;5059641;28;20288;-64
2022/01/06 12:12:36;;;;;;;3.67;1.02;;;3.70;99.90;;;;;;5060615;28;20224;-66
2022/01/06 12:15:11;;;;;;;1.48;0.75;;;3.70;99.90;;;;;;5058478;28;20240;-66
2022/01/06 12:17:45;;;;;;;9.05;0.80;;;3.70;99.90;;;;;;5060018;28;20362;-66
2022/01/06 12:20:20;;;;;;;2.15;0.75;;;3.80;99.90;;;;;;5058839;28;20346;-66
2022/01/06 12:22:50;;;;;;;2.13;0.98;;;3.80;99.90;;;;;;5058845;28;20250;-66
2022/01/06 12:25:23;;;;;;;4.97;1.40;;;3.80;99.90;;;;;;5058568;28;20201;-66
2022/01/06 12:27:53;;;;;;;5.57;1.60;;;3.80;99.90;;;;;;5059335;28;20308;-66
2022/01/06 12:30:23;;;;;;;6.05;1.42;;;3.90;99.90;;;;;;5064511;28;20269;-65
2022/01/06 12:32:59;;;;;;;2.15;1.20;;;3.90;99.90;;;;;;5068550;28;20209;-66
2022/01/06 12:35:48;;;;;;;2.88;1.38;;;3.90;99.90;;;;;;5064621;28;20258;-70
2022/01/06 12:38:26;;;;;;;0.95;0.95;;;3.90;99.90;;;;;;5058862;28;20793;-66
2022/01/06 12:40:54;;;;;;;8.18;1.60;;;3.90;99.90;;;;;;5059876;28;20193;-66
2022/01/06 12:43:37;;;;;;;5.30;1.90;;;3.90;99.90;;;;;;5062157;28;20217;-66
2022/01/06 12:46:07;;;;;;;1.23;1.05;;;3.90;99.90;;;;;;5073406;28;20213;-66
2022/01/06 12:48:38;;;;;;;2.17;1.30;;;4.00;99.90;;;;;;5063669;28;20221;-66
2022/01/06 12:51:07;;;;;;;1.67;1.17;;;4.00;99.90;;;;;;5058267;28;20228;-66
2022/01/06 12:53:40;;;;;;;2.55;0.90;;;4.00;99.90;;;;;;5057562;28;20924;-66
2022/01/06 12:56:10;;;;;;;4.03;1.10;;;4.00;99.90;;;;;;5058155;28;20299;-66
2022/01/06 12:58:39;;;;;;;2.65;1.80;;;4.00;99.90;;;;;;5057832;28;20912;-66
2022/01/06 13:01:08;;;;;;;3.53;1.05;;;4.00;99.90;;;;;;5058279;28;20295;-64
2022/01/06 13:03:39;;;;;;;1.38;1.08;;;3.90;99.90;;;;;;5058899;28;20652;-67
2022/01/06 13:06:10;;;;;;;2.05;0.80;;;3.90;99.90;;;;;;5061085;28;20225;-67
2022/01/06 13:08:48;;;;;;;2.30;1.33;;;3.90;99.90;;;;;;5062671;28;20248;-66
2022/01/06 13:11:17;;;;;;;2.83;1.20;;;4.00;99.90;;;;;;5061940;28;20676;-64